Time;durP1;ratioP1;P1;durP2;ratioP2;P2;SDS_P1;SDS_P2;PMS_P1;PMS_P2;Temp;Humidity;BMP_temperature;BMP_pressure;BME280_temperature;BME280_humidity;BME280_pressure;Samples;Min_cycle;Max_cycle;Signal;HPM_P1;HPM_P2
2022/07/24 07:41:06;;;;;;;4.78;1.70;;;;;;;22.56;58.56;101896.03;4973224;28;96918;-34
2022/07/24 07:43:31;;;;;;;4.57;1.65;;;;;;;22.78;57.03;101903.13;4976307;28;97561;-35
2022/07/24 07:45:57;;;;;;;2.90;1.48;;;;;;;22.78;56.95;101898.47;4976447;28;104006;-35
2022/07/24 07:48:22;;;;;;;3.30;1.75;;;;;;;22.87;56.61;101900.34;4975873;28;96633;-35
2022/07/24 07:50:48;;;;;;;3.83;1.58;;;;;;;23.04;57.05;101893.19;4977177;28;96809;-35
2022/07/24 07:53:13;;;;;;;3.40;1.75;;;;;;;23.29;56.66;101899.09;4976751;28;97913;-35
2022/07/24 07:55:38;;;;;;;3.42;1.80;;;;;;;23.36;55.86;101896.56;4976759;28;97808;-35
2022/07/24 07:58:05;;;;;;;6.20;1.65;;;;;;;23.24;55.93;101880.19;4976376;28;96569;-35
2022/07/24 08:00:31;;;;;;;3.03;1.40;;;;;;;23.19;56.17;101881.66;4975592;28;96864;-35
2022/07/24 08:02:57;;;;;;;2.55;1.60;;;;;;;23.34;56.41;101870.97;4975207;28;101358;-35
2022/07/24 08:05:22;;;;;;;3.28;1.63;;;;;;;23.54;55.06;101872.59;4976315;28;97307;-35
2022/07/24 08:07:47;;;;;;;3.47;1.55;;;;;;;23.68;54.78;101866.53;4976265;28;96413;-35
2022/07/24 08:10:13;;;;;;;2.90;1.60;;;;;;;23.87;54.47;101864.72;4976661;28;97023;-35
2022/07/24 08:12:38;;;;;;;2.97;1.80;;;;;;;23.98;53.96;101867.25;4976177;28;99336;-35
2022/07/24 08:15:04;;;;;;;4.93;1.80;;;;;;;23.98;54.14;101869.13;4976458;28;97777;-36
2022/07/24 08:17:30;;;;;;;2.60;1.30;;;;;;;24.00;52.64;101856.88;4975172;28;96594;-35
2022/07/24 08:19:55;;;;;;;2.72;1.48;;;;;;;23.96;52.74;101863.78;4976704;28;96867;-35
2022/07/24 08:22:20;;;;;;;3.60;1.60;;;;;;;23.99;52.20;101868.97;4976608;28;97319;-35
2022/07/24 08:24:46;;;;;;;3.13;1.42;;;;;;;24.15;52.00;101866.38;4976567;28;97903;-35
2022/07/24 08:27:11;;;;;;;3.53;2.00;;;;;;;24.23;52.49;101873.03;4976485;28;96698;-35
2022/07/24 08:29:37;;;;;;;3.33;1.40;;;;;;;24.49;51.92;101862.03;4976223;28;96952;-36
2022/07/24 08:32:02;;;;;;;5.07;1.48;;;;;;;24.75;51.93;101873.13;4974955;28;114578;-35
2022/07/24 08:34:28;;;;;;;5.05;1.40;;;;;;;24.77;50.53;101866.38;4976016;28;99251;-35
2022/07/24 08:36:53;;;;;;;2.90;1.58;;;;;;;24.74;51.71;101869.50;4976132;28;96600;-35
2022/07/24 08:39:18;;;;;;;3.63;1.65;;;;;;;24.83;51.22;101864.84;4974971;28;96827;-35
2022/07/24 08:41:44;;;;;;;4.30;1.63;;;;;;;24.90;50.97;101865.06;4975134;28;99443;-35
2022/07/24 08:44:10;;;;;;;4.22;1.80;;;;;;;25.10;50.22;101866.59;4976189;28;97780;-35
2022/07/24 08:46:40;;;;;;;4.85;1.50;;;;;;;25.07;48.16;101852.19;4975882;28;97776;-35
2022/07/24 08:49:09;;;;;;;3.83;1.50;;;;;;;25.05;49.83;101865.34;4974383;28;96795;-34
2022/07/24 08:51:37;;;;;;;3.30;1.65;;;;;;;25.27;48.56;101852.84;4974310;28;100796;-35
2022/07/24 08:54:02;;;;;;;4.00;1.88;;;;;;;25.29;49.94;101861.84;4974364;28;100772;-35
2022/07/24 08:56:28;;;;;;;2.42;1.48;;;;;;;25.54;49.20;101862.81;4975275;28;96613;-35
2022/07/24 08:58:54;;;;;;;8.68;1.85;;;;;;;25.66;48.80;101858.69;4974249;28;96543;-34
2022/07/24 09:01:19;;;;;;;2.78;1.60;;;;;;;25.83;49.06;101867.94;4975436;28;98917;-34
2022/07/24 09:03:46;;;;;;;5.25;1.63;;;;;;;25.88;47.52;101854.44;4975891;28;96878;-34
2022/07/24 09:06:13;;;;;;;4.40;1.70;;;;;;;26.01;46.52;101851.19;4974230;28;96569;-34
2022/07/24 09:08:55;;;;;;;4.55;1.77;;;;;;;26.15;46.53;101853.28;4974416;28;96860;-34
2022/07/24 09:11:21;;;;;;;4.28;1.95;;;;;;;26.25;47.20;101850.34;4974023;28;102879;-35
2022/07/24 09:16:34;;;;;;;3.05;1.60;;;;;;;25.95;47.87;101852.72;4975474;28;96655;-34
2022/07/24 09:19:09;;;;;;;2.97;1.38;;;;;;;26.16;46.85;101851.38;4974775;28;96888;-34
2022/07/24 09:21:37;;;;;;;6.30;1.80;;;;;;;26.19;47.05;101848.22;4974133;28;99330;-34
2022/07/24 09:24:17;;;;;;;4.07;1.67;;;;;;;26.33;46.40;101861.44;4973463;28;103543;-34
2022/07/24 09:27:02;;;;;;;3.92;1.50;;;;;;;26.51;45.99;101854.84;4975766;28;96536;-34
2022/07/24 09:29:28;;;;;;;7.80;1.85;;;;;;;26.46;46.20;101855.38;4975458;28;96950;-34
2022/07/24 09:32:01;;;;;;;8.43;1.55;;;;;;;26.51;46.94;101852.94;4975606;28;97465;-34
2022/07/24 09:34:29;;;;;;;2.63;1.58;;;;;;;26.82;47.01;101846.66;4973444;28;100728;-34
2022/07/24 09:37:03;;;;;;;2.88;1.77;;;;;;;26.93;46.50;101849.06;4975304;28;96782;-34
2022/07/24 09:39:32;;;;;;;4.43;1.77;;;;;;;27.15;44.92;101852.13;4976111;28;96751;-34
2022/07/24 09:41:59;;;;;;;3.13;1.60;;;;;;;27.13;45.70;101834.75;4973242;28;101592;-34
2022/07/24 09:44:25;;;;;;;3.60;1.65;;;;;;;27.13;44.37;101848.66;4973810;28;99056;-34
2022/07/24 09:47:00;;;;;;;4.40;1.90;;;;;;;27.30;44.54;101853.16;4974623;28;96546;-35
2022/07/24 09:49:26;;;;;;;5.40;2.35;;;;;;;27.57;45.86;101853.72;4974011;28;96829;-34
2022/07/24 09:52:18;;;;;;;4.22;1.60;;;;;;;27.50;45.75;101840.50;4973569;28;100849;-34
2022/07/24 09:54:47;;;;;;;2.67;1.58;;;;;;;27.78;45.65;101848.38;4973638;28;100935;-34
2022/07/24 09:57:19;;;;;;;3.05;1.77;;;;;;;27.91;44.21;101839.44;4973284;28;96919;-35
2022/07/24 09:59:54;;;;;;;;;;;;;;;27.64;43.88;101832.44;4974165;28;96823;-34
2022/07/24 10:02:23;;;;;;;2.58;1.77;;;;;;;27.66;44.73;101830.34;4973569;28;100828;-34
2022/07/24 10:04:50;;;;;;;2.92;1.60;;;;;;;27.81;43.79;101828.50;4973592;28;101008;-34
2022/07/24 10:07:18;;;;;;;3.35;1.80;;;;;;;27.99;43.87;101831.03;4973489;28;96564;-34
2022/07/24 10:09:46;;;;;;;6.07;1.83;;;;;;;28.26;44.42;101832.38;4973334;28;97011;-34
2022/07/24 10:12:15;;;;;;;3.15;1.67;;;;;;;28.28;42.99;101835.84;4972805;28;100912;-34
2022/07/24 10:14:42;;;;;;;3.05;1.50;;;;;;;28.28;43.71;101829.41;4973308;28;100900;-34
2022/07/24 10:17:10;;;;;;;8.98;2.00;;;;;;;28.37;42.67;101820.78;4973389;28;96674;-34
2022/07/24 10:19:47;;;;;;;5.38;1.70;;;;;;;28.62;42.91;101823.34;4973618;28;96887;-34
2022/07/24 10:22:15;;;;;;;3.53;1.83;;;;;;;28.51;42.62;101824.69;4973092;28;100937;-34
2022/07/24 10:24:58;;;;;;;2.83;1.48;;;;;;;28.28;42.40;101810.75;4973186;28;100471;-34
2022/07/24 10:27:31;;;;;;;2.72;1.75;;;;;;;28.33;43.17;101825.00;4974978;28;96572;-34
2022/07/24 10:30:04;;;;;;;4.20;1.90;;;;;;;28.67;42.62;101814.41;4975063;28;96513;-34
2022/07/24 10:32:31;;;;;;;2.10;1.42;;;;;;;28.90;41.44;101817.16;4974756;28;98088;-34
2022/07/24 10:35:22;;;;;;;2.85;1.48;;;;;;;29.20;42.37;101806.88;4972838;28;101371;-34
2022/07/24 10:38:06;;;;;;;2.72;1.60;;;;;;;29.38;41.75;101806.44;4972721;28;96618;-34
2022/07/24 10:40:54;;;;;;;2.72;1.60;;;;;;;29.53;40.99;101809.19;4975235;28;96562;-34
2022/07/24 10:43:21;;;;;;;3.35;1.70;;;;;;;29.29;41.11;101800.09;4972358;28;100904;-35
2022/07/24 10:46:07;;;;;;;2.58;1.52;;;;;;;29.29;39.69;101811.25;4972862;28;100748;-34
2022/07/24 10:48:37;;;;;;;4.57;1.90;;;;;;;29.19;41.50;101797.63;4974505;28;96500;-35
2022/07/24 10:51:11;;;;;;;3.70;1.75;;;;;;;29.24;40.05;101807.34;4973297;28;96860;-34
2022/07/24 10:53:36;;;;;;;3.03;1.65;;;;;;;29.23;41.36;101814.84;4972700;28;100839;-34
2022/07/24 10:56:19;;;;;;;3.13;1.52;;;;;;;29.34;41.51;101802.31;4974683;28;97606;-34
2022/07/24 10:59:07;;;;;;;3.25;1.83;;;;;;;29.51;40.72;101798.25;4972835;28;96571;-34
2022/07/24 11:01:44;;;;;;;5.60;1.98;;;;;;;29.64;40.56;101805.91;4973314;28;96758;-34
2022/07/24 11:04:18;;;;;;;8.05;1.98;;;;;;;29.49;39.29;101797.56;4972250;28;100992;-35
2022/07/24 11:06:50;;;;;;;3.97;1.98;;;;;;;29.34;40.17;101797.63;4973863;28;97879;-34
2022/07/24 11:09:18;;;;;;;2.58;1.60;;;;;;;29.56;40.35;101787.34;4972886;28;97066;-34
2022/07/24 11:11:55;;;;;;;2.42;1.50;;;;;;;29.62;39.69;101792.13;4973111;28;96955;-34
2022/07/24 11:14:36;;;;;;;4.50;1.85;;;;;;;29.52;40.15;101776.78;4977070;28;97527;-35
2022/07/24 11:17:40;;;;;;;4.82;1.75;;;;;;;29.59;38.24;101783.28;4975919;28;100799;-35
2022/07/24 11:20:11;;;;;;;6.32;1.77;;;;;;;29.46;38.86;101778.41;4977509;28;96630;-34
2022/07/24 11:22:39;;;;;;;3.50;1.63;;;;;;;29.41;39.67;101780.91;4978038;28;96606;-35
2022/07/24 11:25:06;;;;;;;4.22;1.55;;;;;;;29.61;39.48;101784.81;4977297;28;97383;-34
2022/07/24 11:27:43;;;;;;;3.38;1.88;;;;;;;29.96;39.03;101785.00;4975681;28;100895;-35
2022/07/24 11:30:10;;;;;;;3.60;1.85;;;;;;;30.00;38.66;101785.47;4975573;28;96625;-35
2022/07/24 11:32:37;;;;;;;3.28;1.80;;;;;;;30.27;39.71;101783.78;4976225;28;96901;-34
2022/07/24 11:35:04;;;;;;;5.13;1.88;;;;;;;30.53;39.36;101782.28;4975669;28;100836;-35
2022/07/24 11:37:30;;;;;;;2.97;1.70;;;;;;;30.58;39.43;101771.34;4975435;28;101512;-34
2022/07/24 11:39:55;;;;;;;6.30;2.05;;;;;;;30.43;38.23;101772.31;4975943;28;96725;-34
2022/07/24 11:42:21;;;;;;;8.38;1.75;;;;;;;30.53;38.20;101757.13;4977262;28;96764;-35
2022/07/24 11:44:48;;;;;;;5.03;1.95;;;;;;;30.39;38.30;101751.44;4977036;28;98236;-34
2022/07/24 11:47:15;;;;;;;4.03;1.85;;;;;;;30.63;38.78;101766.88;4975726;28;100874;-34
2022/07/24 11:49:45;;;;;;;3.50;1.55;;;;;;;30.41;37.74;101762.41;4976990;28;96466;-35
2022/07/24 11:52:17;;;;;;;3.42;1.80;;;;;;;30.53;37.78;101748.72;4976912;28;96839;-35
2022/07/24 11:54:44;;;;;;;4.07;1.92;;;;;;;30.69;39.12;101752.06;4974870;28;98989;-34
2022/07/24 11:57:25;;;;;;;9.05;2.03;;;;;;;30.82;38.05;101742.91;4975027;28;100895;-34
2022/07/24 11:59:51;;;;;;;2.97;1.70;;;;;;;30.89;38.88;101727.03;4976895;28;96699;-34
2022/07/24 12:02:17;;;;;;;3.72;1.85;;;;;;;30.84;36.51;101726.81;4975321;28;97178;-35
2022/07/24 12:05:01;;;;;;;6.05;1.80;;;;;;;30.71;38.09;101743.47;4975169;28;100816;-35
2022/07/24 12:07:27;;;;;;;5.05;1.85;;;;;;;30.76;38.42;101738.13;4976552;28;97414;-34
2022/07/24 12:09:52;;;;;;;3.35;1.83;;;;;;;31.06;38.65;101729.47;4977047;28;96509;-34
2022/07/24 12:12:18;;;;;;;5.05;1.90;;;;;;;30.95;37.99;101728.13;4977174;28;96835;-34
2022/07/24 12:14:44;;;;;;;4.78;1.83;;;;;;;30.36;37.04;101723.88;4976326;28;98035;-35
2022/07/24 12:17:09;;;;;;;3.33;1.80;;;;;;;30.57;38.34;101728.53;4976253;28;97803;-35
2022/07/24 12:19:34;;;;;;;3.33;1.95;;;;;;;30.56;37.77;101723.13;4976380;28;96522;-34
2022/07/24 12:21:59;;;;;;;4.33;2.10;;;;;;;30.52;37.61;101711.50;4975998;28;101729;-35
2022/07/24 12:24:25;;;;;;;3.25;1.67;;;;;;;30.60;37.05;101718.88;4975064;28;98875;-34
2022/07/24 12:26:56;;;;;;;3.38;1.80;;;;;;;30.52;38.22;101728.28;4976385;28;97795;-34
2022/07/24 12:29:23;;;;;;;2.83;1.92;;;;;;;30.46;37.26;101707.63;4975017;28;97115;-35
2022/07/24 12:31:52;;;;;;;2.97;1.70;;;;;;;30.39;37.69;101717.00;4974976;28;96822;-34
2022/07/24 12:34:17;;;;;;;1.95;1.20;;;;;;;30.53;37.79;101715.16;4974696;28;101039;-34
2022/07/24 12:36:43;;;;;;;3.92;1.70;;;;;;;30.51;37.43;101700.53;4976405;28;97295;-34
2022/07/24 12:39:11;;;;;;;7.60;2.20;;;;;;;30.87;38.14;101717.97;4976402;28;96700;-34
2022/07/24 12:41:47;;;;;;;4.85;1.85;;;;;;;31.08;38.21;101713.31;4974657;28;96849;-35
2022/07/24 12:44:13;;;;;;;3.15;1.80;;;;;;;31.07;37.62;101694.81;4975469;28;98035;-34
2022/07/24 12:46:42;;;;;;;3.05;1.70;;;;;;;30.82;36.15;101705.63;4974525;28;100497;-35
2022/07/24 12:49:08;;;;;;;2.40;1.52;;;;;;;30.79;37.44;101695.72;4976022;28;96624;-34
2022/07/24 12:51:53;;;;;;;3.65;1.88;;;;;;;30.82;36.79;101686.03;4974770;28;96803;-35
2022/07/24 12:54:23;;;;;;;4.93;1.75;;;;;;;30.98;37.85;101691.31;4974328;28;99116;-34
2022/07/24 12:56:51;;;;;;;10.55;1.65;;;;;;;31.14;37.45;101692.03;4973959;28;100996;-35
2022/07/24 12:59:28;;;;;;;3.47;1.75;;;;;;;31.22;37.14;101686.25;4975753;28;96599;-34
2022/07/24 13:01:56;;;;;;;3.45;1.80;;;;;;;31.12;36.22;101672.66;4975093;28;96714;-34
2022/07/24 13:04:24;;;;;;;5.25;2.30;;;;;;;31.17;37.29;101672.00;4975628;28;97994;-34
2022/07/24 13:06:52;;;;;;;4.95;1.67;;;;;;;31.17;36.91;101670.06;4973793;28;100926;-35
2022/07/24 13:09:19;;;;;;;3.67;1.83;;;;;;;31.33;37.33;101660.44;4973947;28;96598;-34
2022/07/24 13:11:47;;;;;;;5.50;1.90;;;;;;;31.16;37.20;101659.97;4974544;28;96837;-34
2022/07/24 13:14:14;;;;;;;5.53;1.73;;;;;;;31.21;36.89;101639.72;4974176;28;101645;-34
2022/07/24 13:16:41;;;;;;;4.50;1.80;;;;;;;31.21;37.46;101654.59;4974171;28;100929;-34
2022/07/24 13:19:08;;;;;;;4.93;2.28;;;;;;;31.32;38.08;101639.97;4974323;28;96724;-35
2022/07/24 13:21:36;;;;;;;3.67;1.75;;;;;;;31.35;37.11;101640.63;4974103;28;96853;-35
2022/07/24 13:24:02;;;;;;;5.57;2.00;;;;;;;31.35;37.19;101643.44;4975506;28;97982;-34
2022/07/24 13:26:28;;;;;;;3.20;1.67;;;;;;;31.41;37.31;101642.59;4974317;28;101319;-34
2022/07/24 13:28:53;;;;;;;4.50;1.92;;;;;;;31.58;37.11;101643.03;4975368;28;96533;-34
2022/07/24 13:31:21;;;;;;;2.88;1.65;;;;;;;31.49;37.55;101631.19;4975756;28;96930;-35
2022/07/24 13:33:48;;;;;;;5.10;1.67;;;;;;;31.54;36.59;101628.63;4973415;28;101309;-35
2022/07/24 13:36:15;;;;;;;3.42;1.30;;;;;;;31.37;36.36;101630.03;4974824;28;97850;-35
2022/07/24 13:38:41;;;;;;;2.95;1.50;;;;;;;31.26;36.65;101611.97;4974062;28;96526;-34
2022/07/24 13:41:06;;;;;;;3.63;1.80;;;;;;;31.33;37.37;101610.88;4975448;28;96818;-34
2022/07/24 13:43:32;;;;;;;2.15;1.50;;;;;;;31.43;36.27;101602.09;4974811;28;99269;-35
2022/07/24 13:45:57;;;;;;;3.60;1.77;;;;;;;31.42;36.96;101605.13;4974853;28;99322;-34
2022/07/24 13:48:23;;;;;;;3.40;1.58;;;;;;;31.47;37.51;101609.00;4975787;28;96451;-35
2022/07/24 13:50:48;;;;;;;3.17;1.40;;;;;;;31.30;37.37;101597.31;4975469;28;96797;-35
2022/07/24 13:53:14;;;;;;;2.45;1.55;;;;;;;31.15;37.32;101582.63;4975134;28;98098;-35
2022/07/24 13:55:39;;;;;;;3.30;1.60;;;;;;;31.04;37.45;101577.69;4975145;28;97676;-35
2022/07/24 13:58:04;;;;;;;5.78;1.73;;;;;;;30.99;37.55;101566.28;4974565;28;96542;-35
2022/07/24 14:00:30;;;;;;;2.53;1.60;;;;;;;31.15;37.04;101570.59;4974990;28;98366;-34
2022/07/24 14:02:55;;;;;;;2.53;1.50;;;;;;;31.25;37.60;101577.50;4974691;28;105371;-34
2022/07/24 14:05:27;;;;;;;2.58;1.50;;;;;;;31.29;36.75;101572.31;4974282;28;99106;-35
2022/07/24 14:07:53;;;;;;;2.25;1.25;;;;;;;31.30;37.64;101572.13;4973837;28;96597;-35
2022/07/24 14:10:20;;;;;;;6.78;1.73;;;;;;;31.32;36.84;101567.16;4973750;28;96920;-35
2022/07/24 14:12:46;;;;;;;3.60;1.70;;;;;;;31.17;37.32;101566.50;4973232;28;100842;-35
2022/07/24 14:15:15;;;;;;;2.42;1.27;;;;;;;31.13;37.14;101562.41;4974845;28;99653;-35
2022/07/24 14:17:42;;;;;;;2.15;1.40;;;;;;;31.01;37.29;101562.19;4973357;28;96744;-35
2022/07/24 14:20:09;;;;;;;4.10;1.70;;;;;;;30.94;37.09;101557.63;4973471;28;96834;-34
2022/07/24 14:22:35;;;;;;;2.40;1.52;;;;;;;31.02;37.79;101549.06;4972719;28;99449;-34
2022/07/24 14:25:01;;;;;;;3.10;1.50;;;;;;;31.08;37.50;101549.06;4973262;28;100884;-35
2022/07/24 14:27:27;;;;;;;4.13;1.38;;;;;;;30.95;37.40;101543.44;4974910;28;97344;-34
2022/07/24 14:29:53;;;;;;;2.08;1.52;;;;;;;30.86;37.52;101539.97;4973446;28;96898;-35
2022/07/24 14:32:18;;;;;;;4.13;1.80;;;;;;;30.95;38.25;101540.63;4974603;28;98052;-35
2022/07/24 14:34:43;;;;;;;4.83;1.90;;;;;;;30.93;38.40;101528.78;4973920;28;110793;-35
2022/07/24 14:37:09;;;;;;;2.95;1.85;;;;;;;30.98;37.75;101519.75;4974028;28;104293;-35
2022/07/24 14:39:34;;;;;;;4.32;1.90;;;;;;;30.89;38.32;101527.47;4975059;28;96883;-35
2022/07/24 14:41:59;;;;;;;3.95;1.38;;;;;;;30.77;37.92;101517.97;4973941;28;98033;-35
2022/07/24 14:44:25;;;;;;;3.80;2.08;;;;;;;30.84;37.66;101525.34;4974291;28;102727;-35
2022/07/24 14:46:50;;;;;;;3.40;1.60;;;;;;;30.81;38.15;101527.66;4974508;28;96532;-35
2022/07/24 14:49:15;;;;;;;2.60;1.48;;;;;;;30.55;36.29;101520.06;4978271;28;96819;-34
2022/07/24 14:51:41;;;;;;;2.55;1.60;;;;;;;30.35;38.00;101508.81;4977885;28;97925;-35
2022/07/24 14:54:08;;;;;;;7.18;1.98;;;;;;;30.28;38.40;101506.00;4977921;28;97118;-34
2022/07/24 14:56:34;;;;;;;7.22;1.80;;;;;;;30.24;38.69;101499.91;4976647;28;96674;-35
2022/07/24 14:58:59;;;;;;;6.03;1.80;;;;;;;30.30;38.57;101495.47;4976305;28;96851;-35
2022/07/24 15:01:25;;;;;;;2.72;1.48;;;;;;;30.36;38.21;101491.81;4977608;28;97445;-35
2022/07/24 15:03:50;;;;;;;3.50;1.60;;;;;;;30.39;37.91;101487.75;4978143;28;97815;-35
2022/07/24 15:06:15;;;;;;;4.30;1.40;;;;;;;30.34;37.80;101491.16;4976493;28;113272;-35
2022/07/24 15:08:41;;;;;;;3.85;1.92;;;;;;;30.39;39.06;101493.34;4978107;28;96850;-35
2022/07/24 15:11:06;;;;;;;2.03;1.23;;;;;;;30.33;37.86;101483.00;4977184;28;98028;-35
2022/07/24 15:13:32;;;;;;;2.67;1.42;;;;;;;30.38;38.30;101486.88;4977474;28;97282;-35
2022/07/24 15:15:57;;;;;;;2.55;1.63;;;;;;;30.40;38.15;101473.56;4977559;28;96648;-35
2022/07/24 15:18:23;;;;;;;2.47;1.75;;;;;;;30.45;38.00;101489.72;4977567;28;96946;-35
2022/07/24 15:20:48;;;;;;;4.30;1.63;;;;;;;30.31;37.76;101477.63;4977482;28;98059;-35
2022/07/24 15:23:14;;;;;;;3.13;1.45;;;;;;;30.15;38.04;101463.97;4977415;28;97778;-35
2022/07/24 15:25:39;;;;;;;2.63;1.48;;;;;;;30.16;38.34;101466.56;4977895;28;96463;-35
2022/07/24 15:28:05;;;;;;;5.70;1.80;;;;;;;30.16;38.27;101463.78;4978029;28;96935;-35
2022/07/24 15:30:31;;;;;;;2.35;1.55;;;;;;;30.13;37.34;101452.13;4977292;28;98477;-35
2022/07/24 15:32:56;;;;;;;3.17;1.58;;;;;;;30.12;37.74;101456.00;4975645;28;100923;-34
2022/07/24 15:35:22;;;;;;;3.05;1.80;;;;;;;30.24;38.29;101449.59;4976696;28;96567;-35
2022/07/24 15:37:47;;;;;;;3.30;1.50;;;;;;;30.31;38.13;101440.41;4977086;28;96975;-35
2022/07/24 15:40:12;;;;;;;2.97;1.70;;;;;;;30.30;38.13;101442.34;4977030;28;97678;-35
2022/07/24 15:42:38;;;;;;;2.90;1.50;;;;;;;30.31;38.34;101429.22;4976317;28;102784;-35
2022/07/24 15:45:04;;;;;;;2.90;1.80;;;;;;;30.29;38.23;101432.22;4977285;28;96543;-35
2022/07/24 15:47:29;;;;;;;4.35;2.00;;;;;;;30.31;38.14;101426.44;4959392;28;96828;-35
2022/07/24 15:49:55;;;;;;;2.53;1.42;;;;;;;30.24;38.36;101424.44;4977078;28;97969;-35
2022/07/24 15:52:20;;;;;;;3.78;1.80;;;;;;;30.25;38.68;101436.50;4975651;28;103035;-35
2022/07/24 15:54:45;;;;;;;3.37;1.40;;;;;;;30.29;38.78;101426.63;4976895;28;97292;-35
2022/07/24 15:57:10;;;;;;;3.22;1.52;;;;;;;30.16;38.16;101426.59;4976822;28;96952;-35
2022/07/24 15:59:36;;;;;;;2.33;1.27;;;;;;;30.10;38.52;101424.63;4975584;28;103722;-34
2022/07/24 16:02:01;;;;;;;2.40;1.58;;;;;;;30.08;38.78;101412.78;4976497;28;98864;-35
2022/07/24 16:04:26;;;;;;;3.15;1.55;;;;;;;30.06;37.89;101408.28;4975542;28;96637;-35
2022/07/24 16:06:52;;;;;;;2.73;1.60;;;;;;;30.07;38.60;101409.13;4976453;28;96764;-35
2022/07/24 16:09:17;;;;;;;2.20;1.40;;;;;;;29.96;39.02;101404.13;4976450;28;99339;-35
2022/07/24 16:11:43;;;;;;;3.97;1.60;;;;;;;29.93;38.71;101391.44;4976424;28;99000;-35
2022/07/24 16:14:08;;;;;;;2.58;1.42;;;;;;;29.96;38.67;101398.56;4975410;28;96611;-35
2022/07/24 16:16:34;;;;;;;4.47;1.80;;;;;;;29.97;38.82;101394.72;4977203;28;96836;-35
2022/07/24 16:19:01;;;;;;;3.35;1.70;;;;;;;29.88;38.34;101393.16;4976322;28;97983;-34
2022/07/24 16:21:26;;;;;;;2.70;1.40;;;;;;;29.83;38.81;101382.63;4974887;28;103717;-35
2022/07/24 16:23:51;;;;;;;5.78;1.60;;;;;;;29.75;38.27;101380.88;4976265;28;96767;-35
2022/07/24 16:26:17;;;;;;;2.80;1.50;;;;;;;29.71;38.53;101376.75;4976485;28;97245;-35
2022/07/24 16:28:42;;;;;;;2.97;1.45;;;;;;;29.76;38.82;101378.94;4976181;28;99437;-35
2022/07/24 16:31:07;;;;;;;5.38;1.60;;;;;;;29.81;38.87;101373.56;4975888;28;109632;-35
2022/07/24 16:33:33;;;;;;;2.88;1.60;;;;;;;29.77;38.99;101361.97;4976477;28;96660;-35
2022/07/24 16:35:58;;;;;;;2.67;1.50;;;;;;;29.77;39.28;101359.19;4976593;28;96785;-35
2022/07/24 16:38:24;;;;;;;3.33;1.75;;;;;;;29.76;38.83;101362.16;4975829;28;99333;-34
2022/07/24 16:40:51;;;;;;;4.68;1.83;;;;;;;29.74;39.49;101361.50;4976405;28;97929;-35
2022/07/24 16:43:16;;;;;;;2.63;1.50;;;;;;;29.76;39.28;101360.25;4974523;28;96942;-34
2022/07/24 16:45:42;;;;;;;3.15;1.67;;;;;;;29.71;39.74;101350.78;4976035;28;96838;-35
2022/07/24 16:48:07;;;;;;;3.60;1.80;;;;;;;29.75;39.60;101354.88;4975286;28;99384;-35
2022/07/24 16:50:33;;;;;;;4.63;1.70;;;;;;;29.72;39.69;101356.13;4975675;28;99512;-35
2022/07/24 16:52:58;;;;;;;2.75;1.45;;;;;;;29.64;39.68;101343.19;4976186;28;96646;-34
2022/07/24 16:55:23;;;;;;;6.18;1.33;;;;;;;29.63;38.75;101340.63;4976178;28;96834;-35
2022/07/24 16:57:49;;;;;;;2.85;1.55;;;;;;;29.64;39.90;101336.75;4975552;28;98016;-35
2022/07/24 17:00:15;;;;;;;3.60;1.80;;;;;;;29.61;40.15;101328.78;4975755;28;97755;-35
2022/07/24 17:02:42;;;;;;;5.15;1.40;;;;;;;29.60;40.22;101333.53;4974702;28;96595;-35
2022/07/24 17:05:08;;;;;;;3.65;2.00;;;;;;;29.59;40.26;101331.78;4976244;28;97018;-35
2022/07/24 17:07:33;;;;;;;4.75;2.20;;;;;;;29.56;40.31;101331.34;4973622;28;100872;-36
2022/07/24 17:09:59;;;;;;;3.25;1.80;;;;;;;29.57;40.35;101331.13;4973529;28;100976;-35
2022/07/24 17:12:24;;;;;;;4.20;1.90;;;;;;;29.57;40.01;101324.69;4975369;28;96723;-35
2022/07/24 17:14:50;;;;;;;4.28;1.58;;;;;;;29.55;40.42;101324.88;4974323;28;97128;-35
2022/07/24 17:17:16;;;;;;;2.50;1.60;;;;;;;29.49;39.87;101317.34;4974377;28;97991;-34
2022/07/24 17:19:42;;;;;;;3.22;1.70;;;;;;;29.43;40.22;101315.38;4975068;28;104975;-34
2022/07/24 17:22:22;;;;;;;6.97;1.85;;;;;;;29.35;40.15;101308.06;4975594;28;96644;-34
2022/07/24 17:24:51;;;;;;;3.40;2.03;;;;;;;29.41;40.49;101318.41;4974366;28;96650;-34
2022/07/24 17:27:18;;;;;;;4.00;1.90;;;;;;;29.34;40.71;101302.66;4972834;28;101121;-35
2022/07/24 17:29:43;;;;;;;4.22;1.85;;;;;;;29.35;40.73;101315.56;4981724;28;100088;-35
2022/07/24 17:32:09;;;;;;;4.00;1.92;;;;;;;29.27;40.67;101307.34;4973619;28;96715;-35
2022/07/24 17:34:35;;;;;;;4.13;1.80;;;;;;;29.30;40.35;101310.63;4973263;28;96848;-34
2022/07/24 17:37:00;;;;;;;4.82;1.85;;;;;;;29.27;40.70;101301.78;4974747;28;98113;-35
2022/07/24 17:39:26;;;;;;;3.28;1.80;;;;;;;29.30;40.75;101302.25;4975142;28;97794;-34
2022/07/24 17:41:51;;;;;;;3.00;2.13;;;;;;;29.29;40.88;101303.28;4974476;28;96888;-35
2022/07/24 17:44:16;;;;;;;2.95;1.90;;;;;;;29.23;40.79;101297.69;4975294;28;96849;-35
2022/07/24 17:46:42;;;;;;;3.78;2.00;;;;;;;29.23;40.49;101294.91;4975267;28;97540;-34
2022/07/24 17:49:07;;;;;;;3.43;1.97;;;;;;;29.30;40.75;101299.44;4989699;28;114310;-34
2022/07/24 17:51:32;;;;;;;3.00;1.75;;;;;;;29.29;40.63;101299.66;4994187;28;110244;-35
2022/07/24 17:53:57;;;;;;;5.10;1.90;;;;;;;29.25;41.03;101295.53;4995449;28;96854;-35
2022/07/24 17:56:23;;;;;;;4.20;2.08;;;;;;;29.24;41.01;101296.63;4977503;28;97926;-36
2022/07/24 17:58:48;;;;;;;3.10;1.80;;;;;;;29.18;41.11;101288.00;4988149;28;98665;-35
2022/07/24 18:01:14;;;;;;;3.95;2.10;;;;;;;29.23;40.39;101289.31;4994499;28;96602;-35
2022/07/24 18:03:40;;;;;;;4.63;1.73;;;;;;;29.21;41.38;101293.16;4993428;28;96849;-34
2022/07/24 18:06:06;;;;;;;3.28;1.77;;;;;;;29.16;41.00;101283.72;4994252;28;97952;-35
2022/07/24 18:08:31;;;;;;;5.57;2.17;;;;;;;29.15;41.66;101288.44;4994422;28;97822;-35
2022/07/24 18:10:56;;;;;;;4.15;2.13;;;;;;;29.10;41.50;101279.78;4994909;28;96479;-35
2022/07/24 18:13:22;;;;;;;4.57;2.28;;;;;;;29.06;41.90;101270.09;4981799;28;97038;-35
2022/07/24 18:15:48;;;;;;;4.13;1.90;;;;;;;29.04;41.67;101277.81;4994315;28;103785;-35
2022/07/24 18:18:13;;;;;;;4.30;1.90;;;;;;;29.02;42.10;101279.94;4997193;28;99577;-35
2022/07/24 18:20:38;;;;;;;3.88;1.85;;;;;;;28.99;41.45;101281.22;5013112;28;96567;-35
2022/07/24 18:23:04;;;;;;;4.30;1.90;;;;;;;28.97;42.04;101282.50;5001016;28;96871;-35
2022/07/24 18:25:29;;;;;;;4.32;2.03;;;;;;;28.93;42.47;101275.59;4986994;28;103366;-34
2022/07/24 18:27:54;;;;;;;6.70;2.30;;;;;;;28.86;42.07;101269.97;4978971;28;99522;-35
2022/07/24 18:30:20;;;;;;;3.83;2.08;;;;;;;28.80;42.46;101268.00;4985774;28;96739;-35
2022/07/24 18:32:45;;;;;;;4.25;1.90;;;;;;;28.88;42.62;101276.22;4979891;28;96814;-35
2022/07/24 18:35:11;;;;;;;3.25;1.85;;;;;;;28.82;42.32;101265.88;4987971;28;98773;-35
2022/07/24 18:37:36;;;;;;;3.45;2.28;;;;;;;28.82;42.15;101274.25;4988867;28;97832;-35
2022/07/24 18:40:02;;;;;;;3.55;2.10;;;;;;;28.80;42.59;101268.00;4978596;28;96751;-34
2022/07/24 18:42:27;;;;;;;3.72;2.42;;;;;;;28.80;42.45;101271.66;4988255;28;96852;-35
2022/07/24 18:44:53;;;;;;;5.03;2.33;;;;;;;28.75;43.33;101277.00;4979965;28;100806;-35
2022/07/24 18:47:18;;;;;;;3.78;2.45;;;;;;;28.68;43.08;101264.06;4974773;28;97221;-35
2022/07/24 18:49:53;;;;;;;3.72;2.10;;;;;;;28.67;43.87;101262.34;4992759;28;96600;-35
2022/07/24 18:52:18;;;;;;;3.70;1.88;;;;;;;28.65;43.12;101267.25;4995065;28;96923;-35
2022/07/24 18:54:43;;;;;;;4.80;2.20;;;;;;;28.58;43.77;101256.06;4993836;28;97954;-35
2022/07/24 18:57:09;;;;;;;4.50;1.95;;;;;;;28.57;43.43;101271.06;4992330;28;99672;-35
2022/07/24 18:59:34;;;;;;;3.42;2.10;;;;;;;28.54;43.47;101260.31;4978810;28;97058;-35
2022/07/24 19:02:00;;;;;;;12.30;2.42;;;;;;;28.48;43.82;101259.19;4988856;28;96784;-35
2022/07/24 19:04:25;;;;;;;4.55;2.35;;;;;;;28.40;44.44;101262.09;4986641;28;99283;-35
2022/07/24 19:06:51;;;;;;;3.80;2.10;;;;;;;28.35;43.71;101254.34;4993805;28;99154;-35
2022/07/24 19:09:16;;;;;;;3.70;2.67;;;;;;;28.41;44.56;101261.03;4993980;28;96520;-35